createdAt,value
2024-01-01T00:00:01.839Z,0.00
2024-01-01T00:01:01.818Z,0.00
2024-01-01T00:02:01.822Z,0.00
2024-01-01T00:03:08.834Z,0.00
2024-01-01T00:04:01.898Z,0.00
2024-01-01T00:05:02.859Z,0.00
2024-01-01T00:06:01.743Z,0.00
2024-01-01T00:07:05.465Z,0.00
2024-01-01T00:08:02.691Z,0.00
2024-01-01T00:09:01.685Z,0.00
2024-01-01T00:10:02.568Z,0.00
2024-01-01T00:11:01.802Z,0.00
2024-01-01T00:12:01.700Z,0.00
2024-01-01T00:13:02.410Z,0.00
2024-01-01T00:14:01.709Z,0.00
2024-01-01T00:15:01.750Z,0.00
2024-01-01T00:16:01.774Z,0.00
2024-01-01T00:17:02.202Z,0.00
2024-01-01T00:18:04.115Z,0.00
2024-01-01T00:19:06.499Z,0.00
2024-01-01T00:20:09.573Z,0.00
2024-01-01T00:21:02.249Z,0.00
2024-01-01T00:22:02.527Z,0.00
2024-01-01T00:23:01.917Z,0.00
2024-01-01T00:24:02.787Z,0.00
2024-01-01T00:25:01.520Z,0.00
2024-01-01T00:26:01.638Z,0.00
2024-01-01T00:27:01.652Z,0.00
2024-01-01T00:28:02.891Z,0.00
2024-01-01T00:29:02.169Z,0.00
2024-01-01T00:30:01.618Z,0.00
2024-01-01T00:31:01.650Z,0.00
2024-01-01T00:32:03.652Z,0.00
2024-01-01T00:33:08.044Z,0.00
2024-01-01T00:34:02.333Z,0.00
2024-01-01T00:35:02.712Z,0.00
2024-01-01T00:36:02.217Z,0.00
2024-01-01T00:37:09.777Z,0.00
2024-01-01T00:38:24.080Z,0.00
2024-01-01T00:39:08.231Z,0.00
2024-01-01T00:40:04.972Z,0.00
2024-01-01T00:41:02.017Z,0.00
2024-01-01T00:42:01.448Z,0.00
2024-01-01T00:43:25.054Z,0.00
2024-01-01T00:44:02.940Z,0.00
2024-01-01T00:45:03.690Z,0.00
2024-01-01T00:46:02.317Z,0.00
2024-01-01T00:47:02.216Z,0.00
2024-01-01T00:48:01.735Z,0.00
2024-01-01T00:49:01.294Z,0.00
2024-01-01T00:50:01.248Z,0.00
2024-01-01T00:51:02.567Z,0.00
2024-01-01T00:52:01.276Z,0.00
2024-01-01T00:53:01.514Z,0.00
2024-01-01T00:54:02.646Z,0.00
2024-01-01T00:55:03.415Z,0.00
2024-01-01T00:56:01.401Z,0.00
2024-01-01T00:57:02.446Z,0.00
2024-01-01T00:58:03.951Z,0.00
2024-01-01T00:59:02.790Z,0.00
2024-01-01T01:00:04.602Z,0.00
2024-01-01T01:01:01.245Z,0.00
2024-01-01T01:02:01.509Z,0.00
2024-01-01T01:03:01.540Z,0.00
2024-01-01T01:04:01.098Z,0.00
2024-01-01T01:05:06.410Z,0.00
2024-01-01T01:06:08.533Z,0.00
2024-01-01T01:07:01.146Z,0.00
2024-01-01T01:08:01.072Z,0.00
2024-01-01T01:09:00.983Z,0.00
2024-01-01T01:10:01.108Z,0.00
2024-01-01T01:11:01.142Z,0.00
2024-01-01T01:12:01.964Z,0.00
2024-01-01T01:13:01.065Z,0.00
2024-01-01T01:14:01.150Z,0.00
2024-01-01T01:15:00.921Z,0.00
2024-01-01T01:16:01.588Z,0.00
2024-01-01T01:17:01.065Z,0.00
2024-01-01T01:18:01.126Z,0.00
2024-01-01T01:19:01.731Z,0.00
2024-01-01T01:20:00.858Z,0.00
2024-01-01T01:21:01.716Z,0.00
2024-01-01T01:22:00.869Z,0.00
2024-01-01T01:23:01.422Z,0.00
2024-01-01T01:24:01.231Z,0.00
2024-01-01T01:25:00.953Z,0.00
2024-01-01T01:26:01.754Z,0.00
2024-01-01T01:27:00.940Z,0.00
2024-01-01T01:28:01.788Z,0.00
2024-01-01T01:29:01.032Z,0.00
2024-01-01T01:30:01.144Z,0.00
2024-01-01T01:31:00.772Z,0.00
2024-01-01T01:32:00.735Z,0.00
2024-01-01T01:33:00.857Z,0.00
2024-01-01T01:34:00.854Z,0.00
2024-01-01T01:35:01.808Z,0.00
2024-01-01T01:36:01.386Z,0.00
2024-01-01T01:37:00.764Z,0.00
2024-01-01T01:38:00.928Z,0.00
2024-01-01T01:39:00.759Z,0.00
2024-01-01T01:40:00.878Z,0.00
2024-01-01T01:41:00.696Z,0.00
2024-01-01T01:42:00.730Z,0.00
2024-01-01T01:43:02.296Z,0.00
2024-01-01T01:44:00.626Z,0.00
2024-01-01T01:45:00.704Z,0.00
2024-01-01T01:46:00.728Z,0.00
2024-01-01T01:47:00.818Z,0.00
2024-01-01T01:48:00.859Z,0.00
2024-01-01T01:49:00.499Z,0.00
2024-01-01T01:50:00.655Z,0.00
2024-01-01T01:51:00.556Z,0.00
2024-01-01T01:52:00.534Z,0.00
2024-01-01T01:53:00.565Z,0.00
2024-01-01T01:54:00.675Z,0.00
2024-01-01T01:55:00.980Z,0.00
2024-01-01T01:56:00.541Z,0.00
2024-01-01T01:57:00.709Z,0.00
2024-01-01T01:58:03.380Z,0.00
2024-01-01T01:59:01.050Z,0.00
2024-01-01T02:00:01.009Z,0.00
2024-01-01T02:01:00.525Z,0.00
2024-01-01T02:02:00.477Z,0.00
2024-01-01T02:03:00.402Z,0.00
2024-01-01T02:04:00.511Z,0.00
2024-01-01T02:05:00.491Z,0.00
2024-01-01T02:06:00.404Z,0.00
2024-01-01T02:07:01.016Z,0.00
2024-01-01T02:08:01.125Z,0.00
2024-01-01T02:09:00.385Z,0.00
2024-01-01T02:10:00.509Z,0.00
2024-01-01T02:11:00.481Z,0.00
2024-01-01T02:12:00.427Z,0.00
2024-01-01T02:13:00.299Z,0.00
2024-01-01T02:14:00.302Z,0.00
2024-01-01T02:15:01.138Z,0.00
2024-01-01T02:16:00.225Z,0.00
2024-01-01T02:17:00.334Z,0.00
2024-01-01T02:18:00.527Z,0.00
2024-01-01T02:19:00.459Z,0.00
2024-01-01T02:20:01.876Z,0.00
2024-01-01T02:21:00.192Z,0.00
2024-01-01T02:22:01.899Z,0.00
2024-01-01T02:23:00.313Z,0.00
2024-01-01T02:24:00.229Z,0.00
2024-01-01T02:25:00.203Z,0.00
2024-01-01T02:26:00.161Z,0.00
2024-01-01T02:27:00.121Z,0.00
2024-01-01T02:28:00.279Z,0.00
2024-01-01T02:29:00.206Z,0.00
2024-01-01T02:30:00.084Z,0.00
2024-01-01T02:31:00.094Z,0.00
2024-01-01T02:32:00.363Z,0.00
2024-01-01T02:33:00.115Z,0.00
2024-01-01T02:34:00.904Z,0.00
2024-01-01T02:35:00.038Z,0.00
2024-01-01T02:36:00.022Z,0.00
2024-01-01T02:37:00.046Z,0.00
2024-01-01T02:38:00.079Z,0.00
2024-01-01T02:39:00.141Z,0.00
2024-01-01T02:40:00.353Z,0.00
2024-01-01T02:41:00.043Z,0.00
2024-01-01T02:42:00.400Z,0.00
2024-01-01T02:42:59.954Z,0.00
2024-01-01T02:44:01.458Z,0.00
2024-01-01T02:45:00.247Z,0.00
2024-01-01T02:46:00.106Z,0.00
2024-01-01T02:47:07.317Z,0.00
2024-01-01T02:48:00.368Z,0.00
2024-01-01T02:49:00.761Z,0.00
2024-01-01T02:50:00.117Z,0.00
2024-01-01T02:51:00.643Z,0.00
2024-01-01T02:51:59.938Z,0.00
2024-01-01T02:52:59.951Z,0.00
2024-01-01T02:54:00.686Z,0.00
2024-01-01T02:54:59.790Z,0.00
2024-01-01T02:56:00.082Z,0.00
2024-01-01T02:56:59.775Z,0.00
2024-01-01T02:57:59.862Z,0.00
2024-01-01T02:58:59.829Z,0.00
2024-01-01T03:00:00.060Z,0.00
2024-01-01T03:00:59.910Z,0.00
2024-01-01T03:01:59.776Z,0.00
2024-01-01T03:02:59.687Z,0.00
2024-01-01T03:04:00.805Z,0.00
2024-01-01T03:04:59.902Z,0.00
2024-01-01T03:05:59.785Z,0.00
2024-01-01T03:06:59.678Z,0.00
2024-01-01T03:07:59.776Z,0.00
2024-01-01T03:08:59.709Z,0.00
2024-01-01T03:09:59.745Z,0.00
2024-01-01T03:10:59.787Z,0.00
2024-01-01T03:11:59.875Z,0.00
2024-01-01T03:13:00.060Z,0.00
2024-01-01T03:13:59.688Z,0.00
2024-01-01T03:14:59.927Z,0.00
2024-01-01T03:15:59.615Z,0.00
2024-01-01T03:16:59.560Z,0.00
2024-01-01T03:17:59.687Z,0.00
2024-01-01T03:19:02.805Z,0.00
2024-01-01T03:20:00.433Z,0.00
2024-01-01T03:20:59.743Z,0.00
2024-01-01T03:21:59.635Z,0.00
2024-01-01T03:22:59.837Z,0.00
2024-01-01T03:23:59.586Z,0.00
2024-01-01T03:24:59.516Z,0.00
2024-01-01T03:26:00.295Z,0.00
2024-01-01T03:27:00.194Z,0.00
2024-01-01T03:27:59.469Z,0.00
2024-01-01T03:28:59.596Z,0.00
2024-01-01T03:29:59.654Z,0.00
2024-01-01T03:30:59.541Z,0.00
2024-01-01T03:31:59.408Z,0.00
2024-01-01T03:32:59.605Z,0.00
2024-01-01T03:33:59.545Z,0.00
2024-01-01T03:34:59.422Z,0.00
2024-01-01T03:35:59.369Z,0.00
2024-01-01T03:37:00.152Z,0.00
2024-01-01T03:37:59.466Z,0.00
2024-01-01T03:38:59.312Z,0.00
2024-01-01T03:39:59.437Z,0.00
2024-01-01T03:40:59.707Z,0.00
2024-01-01T03:42:00.159Z,0.00
2024-01-01T03:42:59.452Z,0.00
2024-01-01T03:43:59.330Z,0.00
2024-01-01T03:44:59.353Z,0.00
2024-01-01T03:45:59.351Z,0.00
2024-01-01T03:46:59.428Z,0.00
2024-01-01T03:47:59.731Z,0.00
2024-01-01T03:48:59.329Z,0.00
2024-01-01T03:49:59.283Z,0.00
2024-01-01T03:50:59.274Z,0.00
2024-01-01T03:51:59.383Z,0.00
2024-01-01T03:53:00.434Z,0.00
2024-01-01T03:53:59.832Z,0.00
2024-01-01T03:55:00.007Z,0.00
2024-01-01T03:56:00.469Z,0.00
2024-01-01T03:57:01.921Z,0.00
2024-01-01T03:57:59.821Z,0.00
2024-01-01T03:58:59.146Z,0.00
2024-01-01T03:59:59.303Z,0.00
2024-01-01T04:00:59.902Z,0.00
2024-01-01T04:01:59.210Z,0.00
2024-01-01T04:02:59.833Z,0.00
2024-01-01T04:03:59.308Z,0.00
2024-01-01T04:04:59.146Z,0.00
2024-01-01T04:06:00.454Z,0.00
2024-01-01T04:06:59.055Z,0.00
2024-01-01T04:07:59.793Z,0.00
2024-01-01T04:09:00.266Z,0.00
2024-01-01T04:09:59.129Z,0.00
2024-01-01T04:10:59.222Z,0.00
2024-01-01T04:11:59.250Z,0.00
2024-01-01T04:12:59.056Z,0.00
2024-01-01T04:13:59.074Z,0.00
2024-01-01T04:14:58.993Z,0.00
2024-01-01T04:15:58.922Z,0.00
2024-01-01T04:17:03.326Z,0.00
2024-01-01T04:17:58.991Z,0.00
2024-01-01T04:18:59.034Z,0.00
2024-01-01T04:19:59.006Z,0.00
2024-01-01T04:20:58.933Z,0.00
2024-01-01T04:21:59.073Z,0.00
2024-01-01T04:22:58.975Z,0.00
2024-01-01T04:23:58.944Z,0.00
2024-01-01T04:25:00.246Z,0.00
2024-01-01T04:25:58.921Z,0.00
2024-01-01T04:26:58.768Z,0.00
2024-01-01T04:27:59.956Z,0.00
2024-01-01T04:28:58.817Z,0.00
2024-01-01T04:29:58.752Z,0.00
2024-01-01T04:30:59.192Z,0.00
2024-01-01T04:31:58.890Z,0.00
2024-01-01T04:32:58.863Z,0.00
2024-01-01T04:33:58.806Z,0.00
2024-01-01T04:34:59.649Z,0.00
2024-01-01T04:35:58.761Z,0.00
2024-01-01T04:36:58.783Z,0.00
2024-01-01T04:37:58.741Z,0.00
2024-01-01T04:38:58.754Z,0.00
2024-01-01T04:39:58.835Z,0.00
2024-01-01T04:40:58.627Z,0.00
2024-01-01T04:41:58.650Z,0.00
2024-01-01T04:42:58.653Z,0.00
2024-01-01T04:43:59.273Z,0.00
2024-01-01T04:44:58.677Z,0.00
2024-01-01T04:45:58.551Z,0.00
2024-01-01T04:46:58.803Z,0.00
2024-01-01T04:47:58.697Z,0.00
2024-01-01T04:48:58.796Z,0.00
2024-01-01T04:49:58.834Z,0.00
2024-01-01T04:51:01.132Z,0.00
2024-01-01T04:51:58.836Z,0.00
2024-01-01T04:52:58.619Z,0.00
2024-01-01T04:53:59.384Z,0.00
2024-01-01T04:55:02.237Z,0.00
2024-01-01T04:56:02.463Z,0.00
2024-01-01T04:57:01.317Z,0.00
2024-01-01T04:58:00.477Z,0.00
2024-01-01T04:59:00.332Z,0.00
2024-01-01T04:59:58.623Z,0.00
2024-01-01T05:01:00.376Z,0.00
2024-01-01T05:01:58.490Z,0.00
2024-01-01T05:02:59.539Z,0.00
2024-01-01T05:03:58.755Z,0.00
2024-01-01T05:04:58.511Z,0.00
2024-01-01T05:05:58.414Z,0.00
2024-01-01T05:06:59.736Z,0.00
2024-01-01T05:07:59.669Z,0.00
2024-01-01T05:08:58.528Z,0.00
2024-01-01T05:09:59.761Z,0.00
2024-01-01T05:11:03.193Z,0.00
2024-01-01T05:11:58.409Z,0.00
2024-01-01T05:12:59.562Z,0.00
2024-01-01T05:13:59.158Z,0.00
2024-01-01T05:14:58.611Z,0.00
2024-01-01T05:15:59.776Z,0.00
2024-01-01T05:16:58.444Z,0.00
2024-01-01T05:17:58.523Z,0.00
2024-01-01T05:19:00.011Z,0.00
2024-01-01T05:20:05.293Z,0.00
2024-01-01T05:20:59.030Z,0.00
2024-01-01T05:21:59.404Z,0.00
2024-01-01T05:22:59.361Z,0.00
2024-01-01T05:23:59.026Z,0.00
2024-01-01T05:24:58.700Z,0.00
2024-01-01T05:25:58.939Z,0.00
2024-01-01T05:27:01.761Z,0.00
2024-01-01T05:27:58.617Z,0.00
2024-01-01T05:29:00.881Z,0.00
2024-01-01T05:29:59.566Z,0.00
2024-01-01T05:31:00.528Z,0.00
2024-01-01T05:31:59.799Z,0.00
2024-01-01T05:32:58.306Z,0.00
2024-01-01T05:34:13.028Z,0.00
2024-01-01T05:35:03.311Z,0.00
2024-01-01T05:36:00.050Z,0.00
2024-01-01T05:36:58.211Z,0.00
2024-01-01T05:37:58.267Z,0.00
2024-01-01T05:38:58.614Z,0.00
2024-01-01T05:39:58.947Z,0.00
2024-01-01T05:40:58.865Z,0.00
2024-01-01T05:41:58.516Z,0.00
2024-01-01T05:43:02.982Z,0.00
2024-01-01T05:44:00.875Z,0.00
2024-01-01T05:44:59.004Z,0.00
2024-01-01T05:45:58.101Z,0.00
2024-01-01T05:47:02.474Z,0.00
2024-01-01T05:47:59.488Z,0.00
2024-01-01T05:49:20.136Z,0.00
2024-01-01T05:49:58.654Z,0.00
2024-01-01T05:50:58.021Z,0.00
2024-01-01T05:51:58.064Z,0.00
2024-01-01T05:52:58.258Z,0.00
2024-01-01T05:53:59.697Z,0.00
2024-01-01T05:54:58.221Z,0.00
2024-01-01T05:55:58.370Z,0.00
2024-01-01T05:57:01.351Z,0.00
2024-01-01T05:57:58.048Z,0.00
2024-01-01T05:58:58.838Z,0.00
2024-01-01T05:59:58.946Z,0.00
2024-01-01T06:00:58.829Z,0.00
2024-01-01T06:01:58.070Z,0.00
2024-01-01T06:02:58.093Z,0.00
2024-01-01T06:03:57.940Z,0.00
2024-01-01T06:04:58.283Z,0.00
2024-01-01T06:05:58.987Z,0.00
2024-01-01T06:06:58.283Z,0.00
2024-01-01T06:07:59.086Z,0.00
2024-01-01T06:08:58.380Z,0.00
2024-01-01T06:10:00.278Z,0.00
2024-01-01T06:10:58.715Z,0.00
2024-01-01T06:11:57.813Z,0.00
2024-01-01T06:12:59.624Z,0.00
2024-01-01T06:13:59.429Z,0.00
2024-01-01T06:14:58.094Z,0.00
2024-01-01T06:15:59.723Z,0.00
2024-01-01T06:16:59.200Z,0.00
2024-01-01T06:18:00.596Z,0.00
2024-01-01T06:18:58.436Z,0.00
2024-01-01T06:19:57.761Z,0.00
2024-01-01T06:21:18.793Z,0.00
2024-01-01T06:21:58.875Z,0.00
2024-01-01T06:22:57.689Z,0.00
2024-01-01T06:23:57.629Z,0.00
2024-01-01T06:24:57.870Z,0.00
2024-01-01T06:25:57.781Z,0.00
2024-01-01T06:26:57.784Z,0.00
2024-01-01T06:27:57.931Z,0.00
2024-01-01T06:28:57.851Z,0.00
2024-01-01T06:29:57.787Z,0.00
2024-01-01T06:30:58.713Z,0.00
2024-01-01T06:31:57.639Z,0.00
2024-01-01T06:32:57.596Z,0.00
2024-01-01T06:34:00.307Z,0.00
2024-01-01T06:36:26.930Z,0.00
2024-01-01T06:37:28.874Z,0.00
2024-01-01T06:38:28.583Z,0.00
2024-01-01T06:39:27.427Z,0.00
2024-01-01T06:40:28.023Z,0.00
2024-01-01T06:41:27.468Z,0.00
2024-01-01T06:42:30.598Z,0.00
2024-01-01T06:43:27.549Z,0.00
2024-01-01T06:44:28.049Z,0.00
2024-01-01T06:45:27.785Z,0.00
2024-01-01T06:46:27.608Z,0.00
2024-01-01T06:47:27.527Z,0.00
2024-01-01T06:48:28.137Z,0.00
2024-01-01T06:49:31.385Z,0.00
2024-01-01T06:50:32.866Z,0.00
2024-01-01T06:51:31.559Z,0.00
2024-01-01T06:52:27.520Z,0.00
2024-01-01T06:53:27.414Z,0.00
2024-01-01T06:54:28.458Z,0.00
2024-01-01T06:55:28.190Z,0.00
2024-01-01T06:56:27.215Z,0.00
2024-01-01T06:57:27.258Z,0.00
2024-01-01T06:58:28.091Z,0.00
2024-01-01T06:59:27.349Z,0.00
2024-01-01T07:00:28.880Z,0.00
2024-01-01T07:01:27.215Z,0.00
2024-01-01T07:02:27.531Z,0.00
2024-01-01T07:03:31.056Z,0.00
2024-01-01T07:04:28.229Z,0.00
2024-01-01T07:05:27.634Z,0.00
2024-01-01T07:06:29.272Z,0.00
2024-01-01T07:07:27.164Z,0.00
2024-01-01T07:08:28.064Z,0.00
2024-01-01T07:09:27.858Z,0.00
2024-01-01T07:10:27.715Z,0.00
2024-01-01T07:11:27.320Z,0.00
2024-01-01T07:12:27.336Z,0.00
2024-01-01T07:13:27.157Z,0.00
2024-01-01T07:14:30.955Z,0.00
2024-01-01T07:15:27.979Z,0.00
2024-01-01T07:16:26.977Z,0.00
2024-01-01T07:17:27.741Z,0.00
2024-01-01T07:18:27.185Z,0.00
2024-01-01T07:19:27.278Z,0.00
2024-01-01T07:20:27.087Z,0.00
2024-01-01T07:21:30.391Z,0.00
2024-01-01T07:22:27.639Z,0.00
2024-01-01T07:23:27.085Z,0.00
2024-01-01T07:24:27.789Z,0.00
2024-01-01T07:25:26.987Z,0.00
2024-01-01T07:26:32.654Z,0.00
2024-01-01T07:27:28.069Z,0.00
2024-01-01T07:28:36.236Z,0.00
2024-01-01T07:29:28.350Z,0.00
2024-01-01T07:30:30.878Z,0.00
2024-01-01T07:31:29.777Z,0.00
2024-01-01T07:32:29.283Z,0.00
2024-01-01T07:33:27.782Z,0.00
2024-01-01T07:34:29.008Z,0.00
2024-01-01T07:35:27.632Z,0.00
2024-01-01T07:36:28.250Z,0.00
2024-01-01T07:37:27.078Z,0.00
2024-01-01T07:38:27.996Z,0.00
2024-01-01T07:39:28.701Z,0.00
2024-01-01T07:40:27.822Z,0.00
2024-01-01T07:41:28.462Z,0.00
2024-01-01T07:42:27.105Z,0.00
2024-01-01T07:43:27.033Z,0.00
2024-01-01T07:44:31.305Z,0.00
2024-01-01T07:45:27.804Z,0.00
2024-01-01T07:46:32.075Z,0.00
2024-01-01T07:47:29.547Z,0.00
2024-01-01T07:48:28.133Z,0.00
2024-01-01T07:49:30.232Z,0.00
2024-01-01T07:50:28.554Z,0.00
2024-01-01T07:51:27.159Z,0.00
2024-01-01T07:52:28.103Z,0.00
2024-01-01T07:53:27.966Z,0.00
2024-01-01T07:54:27.005Z,0.00
2024-01-01T07:55:27.556Z,0.00
2024-01-01T07:56:28.219Z,0.00
2024-01-01T07:57:27.995Z,0.00
2024-01-01T07:58:26.741Z,0.00
2024-01-01T07:59:28.102Z,0.00
2024-01-01T08:00:30.206Z,0.00
2024-01-01T08:01:27.085Z,0.00
2024-01-01T08:02:28.245Z,0.00
2024-01-01T08:03:27.685Z,0.00
2024-01-01T08:04:28.059Z,0.00
2024-01-01T08:05:26.545Z,0.00
2024-01-01T08:06:28.041Z,0.00
2024-01-01T08:07:27.543Z,0.00
2024-01-01T08:08:28.001Z,0.00
2024-01-01T08:09:27.415Z,0.00
2024-01-01T08:10:28.068Z,0.00
2024-01-01T08:11:27.517Z,0.00
2024-01-01T08:12:27.047Z,1.00
2024-01-01T08:13:28.695Z,1.00
2024-01-01T08:14:27.833Z,0.00
2024-01-01T08:15:27.197Z,0.00
2024-01-01T08:16:26.497Z,0.00
2024-01-01T08:17:27.459Z,0.00
2024-01-01T08:18:39.213Z,0.00
2024-01-01T08:19:32.212Z,0.00
2024-01-01T08:20:27.404Z,0.00
2024-01-01T08:21:28.459Z,0.00
2024-01-01T08:22:27.766Z,0.00
2024-01-01T08:23:27.061Z,0.00
2024-01-01T08:24:26.531Z,0.00
2024-01-01T08:25:27.350Z,0.00
2024-01-01T08:26:36.410Z,0.00
2024-01-01T08:27:26.423Z,1.00
2024-01-01T08:28:26.176Z,0.00
2024-01-01T08:29:26.762Z,0.00
2024-01-01T08:30:27.884Z,0.00
2024-01-01T08:31:26.825Z,0.00
2024-01-01T08:32:26.147Z,0.00
2024-01-01T08:33:26.183Z,0.00
2024-01-01T08:34:26.537Z,0.00
2024-01-01T08:35:27.217Z,0.00
2024-01-01T08:36:26.451Z,0.00
2024-01-01T08:37:27.711Z,0.00
2024-01-01T08:38:26.367Z,0.00
2024-01-01T08:39:26.640Z,0.00
2024-01-01T08:40:30.921Z,1.00
2024-01-01T08:41:28.051Z,1.00
2024-01-01T08:42:26.563Z,1.00
2024-01-01T08:43:26.194Z,1.00
2024-01-01T08:44:26.859Z,1.00
2024-01-01T08:45:32.416Z,0.00
2024-01-01T08:46:27.175Z,0.00
2024-01-01T08:47:41.594Z,0.00
2024-01-01T08:48:27.184Z,0.00
2024-01-01T08:49:26.625Z,0.00
2024-01-01T08:50:34.383Z,0.00
2024-01-01T08:51:26.222Z,0.00
2024-01-01T08:52:26.699Z,0.00
2024-01-01T08:53:27.332Z,0.00
2024-01-01T08:54:29.050Z,0.00
2024-01-01T08:55:26.677Z,0.00
2024-01-01T08:56:25.993Z,0.00
2024-01-01T08:57:27.154Z,0.00
2024-01-01T08:58:25.814Z,0.00
2024-01-01T08:59:31.861Z,0.00
2024-01-01T09:00:26.462Z,0.00
2024-01-01T09:01:48.467Z,0.00
2024-01-01T09:05:00.941Z,0.00
2024-01-01T09:06:01.875Z,0.00
2024-01-01T09:07:00.448Z,0.00
2024-01-01T09:08:00.271Z,0.00
2024-01-01T09:09:00.520Z,0.00
2024-01-01T09:11:31.267Z,0.00
2024-01-01T09:14:28.490Z,0.00
2024-01-01T09:15:28.442Z,0.00
2024-01-01T09:16:28.301Z,0.00
2024-01-01T09:17:28.377Z,2.00
2024-01-01T09:18:30.204Z,1.00
2024-01-01T09:19:28.638Z,2.00
2024-01-01T09:20:31.695Z,1.00
2024-01-01T09:21:28.474Z,0.00
2024-01-01T09:22:37.198Z,2.00
2024-01-01T09:23:27.951Z,2.00
2024-01-01T09:24:27.997Z,0.00
2024-01-01T09:25:40.055Z,0.00
2024-01-01T09:26:32.368Z,0.00
2024-01-01T09:27:28.019Z,1.00
2024-01-01T09:28:28.047Z,1.00
2024-01-01T09:31:38.372Z,1.00
2024-01-01T09:32:38.456Z,1.00
2024-01-01T09:33:38.932Z,1.00
2024-01-01T09:34:43.409Z,0.00
2024-01-01T09:35:38.686Z,0.00
2024-01-01T09:36:49.110Z,0.00
2024-01-01T09:37:44.129Z,0.00
2024-01-01T09:42:37.922Z,4.00
2024-01-01T09:43:32.008Z,4.00
2024-01-01T09:44:30.262Z,4.00
2024-01-01T09:45:29.651Z,3.00
2024-01-01T09:50:01.200Z,2.00
2024-01-01T09:51:15.251Z,2.00
2024-01-01T09:52:01.118Z,3.00
2024-01-01T09:53:00.259Z,4.00
2024-01-01T09:56:15.080Z,2.00
2024-01-01T09:59:15.813Z,2.00
2024-01-01T10:00:07.729Z,2.00
2024-01-01T10:01:13.547Z,2.00
2024-01-01T10:08:12.423Z,1.00
2024-01-01T10:09:10.394Z,1.00
2024-01-01T10:10:03.408Z,0.00
2024-01-01T10:11:01.211Z,0.00
2024-01-01T10:12:07.818Z,0.00
2024-01-01T10:13:07.588Z,0.00
2024-01-01T10:14:00.377Z,3.00
2024-01-01T10:15:01.974Z,2.00
2024-01-01T10:16:01.955Z,3.00
2024-01-01T10:17:01.588Z,3.00
2024-01-01T10:18:00.394Z,3.00
2024-01-01T10:19:02.491Z,3.00
2024-01-01T10:20:08.938Z,3.00
2024-01-01T10:21:00.708Z,3.00
2024-01-01T10:22:08.187Z,3.00
2024-01-01T10:23:04.885Z,4.00
2024-01-01T10:24:04.754Z,2.00
2024-01-01T10:25:00.290Z,6.00
2024-01-01T10:26:00.879Z,4.00
2024-01-01T10:27:01.237Z,6.00
2024-01-01T10:28:07.627Z,6.00
2024-01-01T10:29:00.489Z,6.00
2024-01-01T10:30:00.263Z,3.00
2024-01-01T10:31:00.248Z,1.00
2024-01-01T10:32:00.438Z,3.00
2024-01-01T10:33:02.220Z,2.00
2024-01-01T10:34:02.631Z,3.00
2024-01-01T10:35:01.306Z,4.00
2024-01-01T10:36:00.528Z,4.00
2024-01-01T10:38:58.949Z,6.00
2024-01-01T10:39:52.061Z,6.00
2024-01-01T10:40:52.887Z,3.00
2024-01-01T10:41:51.071Z,2.00
2024-01-01T10:42:50.745Z,3.00
2024-01-01T10:43:51.820Z,1.00
2024-01-01T10:44:51.434Z,2.00
2024-01-01T10:45:53.976Z,2.00
2024-01-01T10:46:51.049Z,2.00
2024-01-01T10:47:57.938Z,2.00
2024-01-01T10:48:50.836Z,2.00
2024-01-01T10:49:52.579Z,2.00
2024-01-01T10:50:52.710Z,7.00
2024-01-01T10:51:52.671Z,7.00
2024-01-01T10:52:51.005Z,2.00
2024-01-01T10:55:16.622Z,1.00
2024-01-01T10:56:18.455Z,1.00
2024-01-01T10:57:18.021Z,2.00
2024-01-01T10:58:17.866Z,3.00
2024-01-01T11:03:48.119Z,2.00
2024-01-01T11:04:26.963Z,2.00
2024-01-01T11:05:26.532Z,3.00
2024-01-01T11:06:26.499Z,2.00
2024-01-01T11:07:29.158Z,2.00
2024-01-01T11:08:26.060Z,2.00
2024-01-01T11:09:26.100Z,3.00
2024-01-01T11:10:28.927Z,1.00
2024-01-01T11:11:29.668Z,1.00
2024-01-01T11:12:27.772Z,2.00
2024-01-01T11:13:28.266Z,6.00
2024-01-01T11:14:26.076Z,7.00
2024-01-01T11:15:27.366Z,6.00
2024-01-01T11:16:28.889Z,1.00
2024-01-01T11:17:26.897Z,2.00
2024-01-01T11:18:43.680Z,2.00
2024-01-01T11:19:26.645Z,1.00
2024-01-01T11:20:27.610Z,3.00
2024-01-01T11:21:26.157Z,3.00
2024-01-01T11:22:27.867Z,7.00
2024-01-01T11:23:28.685Z,5.00
2024-01-01T11:24:36.720Z,5.00
2024-01-01T11:25:26.288Z,6.00
2024-01-01T11:26:25.892Z,7.00
2024-01-01T11:27:26.743Z,5.00
2024-01-01T11:28:27.664Z,4.00
2024-01-01T11:29:26.508Z,7.00
2024-01-01T11:30:28.593Z,6.00
2024-01-01T11:31:29.385Z,7.00
2024-01-01T11:32:30.651Z,10.00
2024-01-01T11:33:25.997Z,7.00
2024-01-01T11:34:27.960Z,5.00
2024-01-01T11:35:26.332Z,9.00
2024-01-01T11:36:25.969Z,12.00
2024-01-01T11:37:25.750Z,12.00
2024-01-01T11:38:27.677Z,10.00
2024-01-01T11:39:26.114Z,8.00
2024-01-01T11:40:26.539Z,5.00
2024-01-01T11:41:26.185Z,11.00
2024-01-01T11:42:26.784Z,11.00
2024-01-01T11:43:30.172Z,3.00
2024-01-01T11:44:25.775Z,5.00
2024-01-01T11:45:25.904Z,8.00
2024-01-01T11:46:27.286Z,5.00
2024-01-01T11:47:25.923Z,8.00
2024-01-01T11:48:26.730Z,12.00
2024-01-01T11:49:27.654Z,9.00
2024-01-01T11:50:28.541Z,11.00
2024-01-01T11:51:28.461Z,13.00
2024-01-01T11:52:26.668Z,9.00
2024-01-01T11:53:25.840Z,9.00
2024-01-01T11:54:28.629Z,5.00
2024-01-01T11:55:30.099Z,6.00
2024-01-01T11:56:42.404Z,8.00
2024-01-01T11:57:26.971Z,11.00
2024-01-01T11:58:27.609Z,6.00
2024-01-01T11:59:25.979Z,10.00
2024-01-01T12:00:30.209Z,8.00
2024-01-01T12:01:26.292Z,12.00
2024-01-01T12:02:29.339Z,11.00
2024-01-01T12:03:25.657Z,8.00
2024-01-01T12:04:32.749Z,1.00
2024-01-01T12:05:25.756Z,2.00
2024-01-01T12:06:26.704Z,3.00
2024-01-01T12:07:25.611Z,2.00
2024-01-01T12:08:25.577Z,2.00
2024-01-01T12:09:25.718Z,1.00
2024-01-01T12:10:25.665Z,3.00
2024-01-01T12:11:25.640Z,3.00
2024-01-01T12:12:25.736Z,1.00
2024-01-01T12:13:26.281Z,1.00
2024-01-01T12:14:26.182Z,2.00
2024-01-01T12:15:26.631Z,5.00
2024-01-01T12:16:27.481Z,7.00
2024-01-01T12:17:28.218Z,3.00
2024-01-01T12:18:30.799Z,2.00
2024-01-01T12:19:25.439Z,1.00
2024-01-01T12:20:28.030Z,2.00
2024-01-01T12:21:26.667Z,3.00
2024-01-01T12:22:25.234Z,9.00
2024-01-01T12:23:25.576Z,13.00
2024-01-01T12:24:26.228Z,5.00
2024-01-01T12:25:26.016Z,2.00
2024-01-01T12:26:26.176Z,2.00
2024-01-01T12:27:28.861Z,2.00
2024-01-01T12:28:28.156Z,6.00
2024-01-01T12:29:37.658Z,10.00
2024-01-01T12:30:25.607Z,4.00
2024-01-01T12:31:26.435Z,14.00
2024-01-01T12:32:26.329Z,6.00
2024-01-01T12:33:26.080Z,6.00
2024-01-01T12:34:26.204Z,4.00
2024-01-01T12:35:25.578Z,6.00
2024-01-01T12:36:29.109Z,9.00
2024-01-01T12:37:25.472Z,7.00
2024-01-01T12:38:25.477Z,5.00
2024-01-01T12:39:48.486Z,5.00
2024-01-01T12:40:25.314Z,2.00
2024-01-01T12:41:25.459Z,2.00
2024-01-01T12:42:25.620Z,1.00
2024-01-01T12:43:25.709Z,5.00
2024-01-01T12:44:26.771Z,5.00
2024-01-01T12:45:29.879Z,5.00
2024-01-01T12:46:25.152Z,4.00
2024-01-01T12:47:25.098Z,1.00
2024-01-01T12:48:28.024Z,2.00
2024-01-01T12:49:27.824Z,1.00
2024-01-01T12:50:27.674Z,1.00
2024-01-01T12:51:27.443Z,1.00
2024-01-01T12:52:26.403Z,1.00
2024-01-01T12:53:26.531Z,2.00
2024-01-01T12:54:24.964Z,3.00
2024-01-01T12:55:32.412Z,2.00
2024-01-01T12:56:25.374Z,6.00
2024-01-01T12:57:25.621Z,3.00
2024-01-01T12:58:27.622Z,1.00
2024-01-01T12:59:26.254Z,2.00
2024-01-01T13:00:26.749Z,1.00
2024-01-01T13:01:24.895Z,2.00
2024-01-01T13:02:25.126Z,2.00
2024-01-01T13:03:29.783Z,2.00
2024-01-01T13:04:38.014Z,7.00
2024-01-01T13:05:25.842Z,7.00
2024-01-01T13:06:25.627Z,2.00
2024-01-01T13:07:28.538Z,1.00
2024-01-01T13:08:26.897Z,1.00
2024-01-01T13:09:24.921Z,2.00
2024-01-01T13:10:25.317Z,3.00
2024-01-01T13:11:26.068Z,3.00
2024-01-01T13:12:25.631Z,2.00
2024-01-01T13:13:25.142Z,5.00
2024-01-01T13:14:27.577Z,2.00
2024-01-01T13:16:47.642Z,1.00
2024-01-01T13:17:46.234Z,1.00
2024-01-01T13:18:44.297Z,3.00
2024-01-01T13:19:45.025Z,2.00
2024-01-01T13:20:44.210Z,2.00
2024-01-01T13:21:45.474Z,3.00
2024-01-01T13:22:44.133Z,5.00
2024-01-01T13:23:45.797Z,7.00
2024-01-01T13:24:45.285Z,3.00
2024-01-01T13:25:44.586Z,2.00
2024-01-01T13:26:45.276Z,3.00
2024-01-01T13:27:45.906Z,2.00
2024-01-01T13:28:44.219Z,1.00
2024-01-01T13:29:44.821Z,1.00
2024-01-01T13:30:44.371Z,3.00
2024-01-01T13:31:44.354Z,4.00
2024-01-01T13:32:46.223Z,4.00
2024-01-01T13:33:44.162Z,2.00
2024-01-01T13:34:44.238Z,4.00
2024-01-01T13:35:44.366Z,4.00
2024-01-01T13:36:44.005Z,1.00
2024-01-01T13:37:58.505Z,1.00
2024-01-01T13:38:44.689Z,0.00
2024-01-01T13:39:44.175Z,0.00
2024-01-01T13:40:45.521Z,0.00
2024-01-01T13:41:45.164Z,0.00
2024-01-01T13:42:44.376Z,0.00
2024-01-01T13:43:46.023Z,0.00
2024-01-01T13:44:44.472Z,0.00
2024-01-01T13:45:44.245Z,0.00
2024-01-01T13:46:45.202Z,1.00
2024-01-01T13:50:45.715Z,0.00
2024-01-01T13:51:38.392Z,0.00
2024-01-01T13:52:49.626Z,0.00
2024-01-01T13:53:39.049Z,0.00
2024-01-01T13:54:52.035Z,0.00
2024-01-01T13:55:39.385Z,0.00